sensor_id;sensor_type;location;lat;lon;timestamp;temperature;humidity
63371;DHT22;49504;48.336;14.472;2022-07-22T03:52:01;27.70;49.90
63371;DHT22;49504;48.336;14.472;2022-07-22T03:57:02;27.70;50.00
63371;DHT22;49504;48.336;14.472;2022-07-22T04:02:03;27.70;50.10
63371;DHT22;49504;48.336;14.472;2022-07-22T04:07:06;27.70;50.20
63371;DHT22;49504;48.336;14.472;2022-07-22T04:12:07;27.60;50.10
63371;DHT22;49504;48.336;14.472;2022-07-22T04:17:09;27.70;50.10
63371;DHT22;49504;48.336;14.472;2022-07-22T04:22:11;27.60;50.20
63371;DHT22;49504;48.336;14.472;2022-07-22T04:27:12;27.60;50.10
63371;DHT22;49504;48.336;14.472;2022-07-22T04:32:13;27.60;50.10
63371;DHT22;49504;48.336;14.472;2022-07-22T04:37:16;27.60;50.10
63371;DHT22;49504;48.336;14.472;2022-07-22T04:42:17;27.60;50.20
63371;DHT22;49504;48.336;14.472;2022-07-22T04:47:19;27.60;50.30
63371;DHT22;49504;48.336;14.472;2022-07-22T04:52:22;27.60;50.40
63371;DHT22;49504;48.336;14.472;2022-07-22T04:57:23;27.60;50.30
63371;DHT22;49504;48.336;14.472;2022-07-22T05:02:24;27.60;50.30
63371;DHT22;49504;48.336;14.472;2022-07-22T05:07:27;27.60;50.30
63371;DHT22;49504;48.336;14.472;2022-07-22T05:12:28;27.60;50.30
63371;DHT22;49504;48.336;14.472;2022-07-22T05:17:29;27.50;50.20
63371;DHT22;49504;48.336;14.472;2022-07-22T05:22:32;27.60;50.20
63371;DHT22;49504;48.336;14.472;2022-07-22T05:27:33;27.50;50.10
63371;DHT22;49504;48.336;14.472;2022-07-22T05:32:34;27.60;50.20
63371;DHT22;49504;48.336;14.472;2022-07-22T05:37:36;27.60;50.20
63371;DHT22;49504;48.336;14.472;2022-07-22T05:42:37;27.50;50.10
63371;DHT22;49504;48.336;14.472;2022-07-22T05:47:38;27.60;50.20
63371;DHT22;49504;48.336;14.472;2022-07-22T05:52:41;27.50;50.20
63371;DHT22;49504;48.336;14.472;2022-07-22T05:57:42;27.50;50.20
63371;DHT22;49504;48.336;14.472;2022-07-22T06:02:43;27.50;50.10
63371;DHT22;49504;48.336;14.472;2022-07-22T06:07:46;27.60;50.20
63371;DHT22;49504;48.336;14.472;2022-07-22T06:16:39;27.50;49.60
63371;DHT22;49504;48.336;14.472;2022-07-22T06:23:13;27.50;49.60
63371;DHT22;49504;48.336;14.472;2022-07-22T06:28:14;27.50;50.10
63371;DHT22;49504;48.336;14.472;2022-07-22T06:33:16;27.50;50.20
63371;DHT22;49504;48.336;14.472;2022-07-22T06:38:18;27.50;50.20
63371;DHT22;49504;48.336;14.472;2022-07-22T06:43:19;27.50;50.10
63371;DHT22;49504;48.336;14.472;2022-07-22T06:48:20;27.50;50.20
63371;DHT22;49504;48.336;14.472;2022-07-22T06:53:22;27.50;50.20
63371;DHT22;49504;48.336;14.472;2022-07-22T06:58:23;27.50;50.20
63371;DHT22;49504;48.336;14.472;2022-07-22T07:03:24;27.50;50.20
63371;DHT22;49504;48.336;14.472;2022-07-22T07:08:27;27.50;50.20
63371;DHT22;49504;48.336;14.472;2022-07-22T07:13:28;27.50;50.20
63371;DHT22;49504;48.336;14.472;2022-07-22T07:18:29;27.50;50.20
63371;DHT22;49504;48.336;14.472;2022-07-22T07:23:32;27.50;50.20
63371;DHT22;49504;48.336;14.472;2022-07-22T07:28:33;27.50;50.30
63371;DHT22;49504;48.336;14.472;2022-07-22T07:33:34;27.50;50.20
63371;DHT22;49504;48.336;14.472;2022-07-22T07:38:36;27.50;50.30
63371;DHT22;49504;48.336;14.472;2022-07-22T07:43:37;27.50;50.30
63371;DHT22;49504;48.336;14.472;2022-07-22T07:48:38;27.50;50.30
63371;DHT22;49504;48.336;14.472;2022-07-22T07:53:41;27.40;50.20
63371;DHT22;49504;48.336;14.472;2022-07-22T07:58:58;27.50;49.80
63371;DHT22;49504;48.336;14.472;2022-07-22T08:03:59;27.50;50.40
63371;DHT22;49504;48.336;14.472;2022-07-22T08:09:00;27.50;50.40
63371;DHT22;49504;48.336;14.472;2022-07-22T08:14:02;27.50;50.40
63371;DHT22;49504;48.336;14.472;2022-07-22T08:19:03;27.50;50.40
63371;DHT22;49504;48.336;14.472;2022-07-22T08:25:52;27.40;49.80
63371;DHT22;49504;48.336;14.472;2022-07-22T08:30:53;27.50;50.50
63371;DHT22;49504;48.336;14.472;2022-07-22T08:35:54;27.50;50.50
63371;DHT22;49504;48.336;14.472;2022-07-22T08:40:57;27.50;50.50
63371;DHT22;49504;48.336;14.472;2022-07-22T08:45:58;27.50;50.50
63371;DHT22;49504;48.336;14.472;2022-07-22T08:53:27;27.40;49.80
63371;DHT22;49504;48.336;14.472;2022-07-22T09:02:07;27.50;50.00
63371;DHT22;49504;48.336;14.472;2022-07-22T09:07:09;27.40;50.40
63371;DHT22;49504;48.336;14.472;2022-07-22T09:12:10;27.50;50.50
63371;DHT22;49504;48.336;14.472;2022-07-22T09:20:27;27.50;50.00
63371;DHT22;49504;48.336;14.472;2022-07-22T09:25:29;27.40;50.40
63371;DHT22;49504;48.336;14.472;2022-07-22T09:30:32;27.50;50.60
63371;DHT22;49504;48.336;14.472;2022-07-22T09:35:36;27.50;50.60
63371;DHT22;49504;48.336;14.472;2022-07-22T09:40:39;27.50;50.50
63371;DHT22;49504;48.336;14.472;2022-07-22T09:45:46;27.50;50.50
63371;DHT22;49504;48.336;14.472;2022-07-22T09:50:51;27.50;50.50
63371;DHT22;49504;48.336;14.472;2022-07-22T09:55:53;27.50;50.40
63371;DHT22;49504;48.336;14.472;2022-07-22T10:02:29;27.40;49.80
63371;DHT22;49504;48.336;14.472;2022-07-22T10:07:32;27.50;50.30
63371;DHT22;49504;48.336;14.472;2022-07-22T10:12:34;27.50;50.30
63371;DHT22;49504;48.336;14.472;2022-07-22T10:17:38;27.50;50.20
63371;DHT22;49504;48.336;14.472;2022-07-22T10:23:03;27.50;50.20
63371;DHT22;49504;48.336;14.472;2022-07-22T10:28:05;27.50;50.30
63371;DHT22;49504;48.336;14.472;2022-07-22T10:33:10;27.50;50.30
63371;DHT22;49504;48.336;14.472;2022-07-22T10:38:12;27.50;50.30
63371;DHT22;49504;48.336;14.472;2022-07-22T10:43:14;27.50;50.40
63371;DHT22;49504;48.336;14.472;2022-07-22T10:48:19;27.50;50.40
63371;DHT22;49504;48.336;14.472;2022-07-22T10:53:23;27.60;50.50
63371;DHT22;49504;48.336;14.472;2022-07-22T11:02:22;27.50;50.00
63371;DHT22;49504;48.336;14.472;2022-07-22T11:07:23;27.60;50.80
63371;DHT22;49504;48.336;14.472;2022-07-22T11:12:26;27.60;50.80
63371;DHT22;49504;48.336;14.472;2022-07-22T11:20:59;27.50;50.20
63371;DHT22;49504;48.336;14.472;2022-07-22T11:26:00;27.60;50.90
63371;DHT22;49504;48.336;14.472;2022-07-22T11:31:08;27.60;50.90
63371;DHT22;49504;48.336;14.472;2022-07-22T11:36:17;27.60;51.00
63371;DHT22;49504;48.336;14.472;2022-07-22T11:41:18;27.60;51.20
63371;DHT22;49504;48.336;14.472;2022-07-22T11:46:19;27.60;52.00
63371;DHT22;49504;48.336;14.472;2022-07-22T11:51:28;27.60;51.30
63371;DHT22;49504;48.336;14.472;2022-07-22T11:56:30;27.60;51.20
63371;DHT22;49504;48.336;14.472;2022-07-22T12:01:33;27.60;51.20
63371;DHT22;49504;48.336;14.472;2022-07-22T12:06:38;27.60;51.30
63371;DHT22;49504;48.336;14.472;2022-07-22T12:11:42;27.60;51.20
63371;DHT22;49504;48.336;14.472;2022-07-22T12:19:40;27.60;50.60
63371;DHT22;49504;48.336;14.472;2022-07-22T12:24:42;27.70;51.20
63371;DHT22;49504;48.336;14.472;2022-07-22T12:29:46;27.70;51.30
63371;DHT22;49504;48.336;14.472;2022-07-22T12:34:58;27.70;51.20
63371;DHT22;49504;48.336;14.472;2022-07-22T12:41:28;27.70;50.60
63371;DHT22;49504;48.336;14.472;2022-07-22T12:46:29;27.70;51.20
63371;DHT22;49504;48.336;14.472;2022-07-22T12:51:30;27.70;51.20
63371;DHT22;49504;48.336;14.472;2022-07-22T12:56:32;27.70;51.30
63371;DHT22;49504;48.336;14.472;2022-07-22T13:01:33;27.80;51.20
63371;DHT22;49504;48.336;14.472;2022-07-22T13:08:18;27.70;50.60
63371;DHT22;49504;48.336;14.472;2022-07-22T13:13:19;27.80;51.10
63371;DHT22;49504;48.336;14.472;2022-07-22T13:18:21;27.80;51.50
63371;DHT22;49504;48.336;14.472;2022-07-22T13:23:23;27.80;51.30
63371;DHT22;49504;48.336;14.472;2022-07-22T13:32:47;27.80;50.70
63371;DHT22;49504;48.336;14.472;2022-07-22T13:37:48;27.80;52.00
63371;DHT22;49504;48.336;14.472;2022-07-22T13:42:49;27.80;51.40
63371;DHT22;49504;48.336;14.472;2022-07-22T13:47:51;27.80;51.40
63371;DHT22;49504;48.336;14.472;2022-07-22T13:52:52;27.80;51.40
63371;DHT22;49504;48.336;14.472;2022-07-22T13:57:53;27.80;51.40
63371;DHT22;49504;48.336;14.472;2022-07-22T14:02:56;27.80;51.30
63371;DHT22;49504;48.336;14.472;2022-07-22T14:07:57;27.80;51.30
63371;DHT22;49504;48.336;14.472;2022-07-22T14:12:58;27.80;52.20
63371;DHT22;49504;48.336;14.472;2022-07-22T14:18:01;27.80;52.70
63371;DHT22;49504;48.336;14.472;2022-07-22T14:27:00;27.80;51.70
63371;DHT22;49504;48.336;14.472;2022-07-22T14:32:01;27.80;52.50
63371;DHT22;49504;48.336;14.472;2022-07-22T14:37:02;27.80;52.60
63371;DHT22;49504;48.336;14.472;2022-07-22T14:42:05;27.80;52.50
63371;DHT22;49504;48.336;14.472;2022-07-22T14:47:57;27.80;51.60
63371;DHT22;49504;48.336;14.472;2022-07-22T14:52:58;27.80;52.20
63371;DHT22;49504;48.336;14.472;2022-07-22T14:57:59;27.90;52.30
63371;DHT22;49504;48.336;14.472;2022-07-22T15:03:02;27.80;52.20
63371;DHT22;49504;48.336;14.472;2022-07-22T15:08:03;27.80;52.10
63371;DHT22;49504;48.336;14.472;2022-07-22T15:13:04;27.80;52.30
63371;DHT22;49504;48.336;14.472;2022-07-22T15:21:34;27.90;51.70
63371;DHT22;49504;48.336;14.472;2022-07-22T15:30:33;27.90;51.60
63371;DHT22;49504;48.336;14.472;2022-07-22T15:35:36;27.90;52.40
63371;DHT22;49504;48.336;14.472;2022-07-22T15:49:33;27.90;51.70
63371;DHT22;49504;48.336;14.472;2022-07-22T15:54:34;27.90;52.30
63371;DHT22;49504;48.336;14.472;2022-07-22T15:59:35;27.90;52.30
63371;DHT22;49504;48.336;14.472;2022-07-22T16:04:38;27.90;52.30
63371;DHT22;49504;48.336;14.472;2022-07-22T16:09:39;27.90;52.20
63371;DHT22;49504;48.336;14.472;2022-07-22T16:14:40;27.90;52.10
63371;DHT22;49504;48.336;14.472;2022-07-22T16:19:42;28.00;52.10
63371;DHT22;49504;48.336;14.472;2022-07-22T16:24:43;28.00;52.20
63371;DHT22;49504;48.336;14.472;2022-07-22T16:29:44;27.90;52.10
63371;DHT22;49504;48.336;14.472;2022-07-22T16:34:47;28.00;52.00
63371;DHT22;49504;48.336;14.472;2022-07-22T16:39:48;28.00;51.90
63371;DHT22;49504;48.336;14.472;2022-07-22T16:44:49;28.00;51.80
63371;DHT22;49504;48.336;14.472;2022-07-22T16:49:52;27.90;51.60
63371;DHT22;49504;48.336;14.472;2022-07-22T16:59:03;27.90;51.10
63371;DHT22;49504;48.336;14.472;2022-07-22T17:04:04;28.00;51.40
63371;DHT22;49504;48.336;14.472;2022-07-22T17:10:58;27.90;50.90
63371;DHT22;49504;48.336;14.472;2022-07-22T17:15:59;27.90;51.20
63371;DHT22;49504;48.336;14.472;2022-07-22T17:21:00;28.00;51.20
63371;DHT22;49504;48.336;14.472;2022-07-22T17:26:41;27.90;50.70
63371;DHT22;49504;48.336;14.472;2022-07-22T17:31:42;28.00;51.20
63371;DHT22;49504;48.336;14.472;2022-07-22T17:36:43;27.90;51.10
63371;DHT22;49504;48.336;14.472;2022-07-22T17:41:46;27.90;51.10
63371;DHT22;49504;48.336;14.472;2022-07-22T17:46:47;27.90;51.10
63371;DHT22;49504;48.336;14.472;2022-07-22T17:51:49;27.90;51.10
63371;DHT22;49504;48.336;14.472;2022-07-22T17:56:52;27.90;51.10
63371;DHT22;49504;48.336;14.472;2022-07-22T18:01:53;27.90;51.20
63371;DHT22;49504;48.336;14.472;2022-07-22T18:06:54;27.90;51.20
63371;DHT22;49504;48.336;14.472;2022-07-22T18:11:56;27.90;51.30
63371;DHT22;49504;48.336;14.472;2022-07-22T18:16:57;27.90;51.30
63371;DHT22;49504;48.336;14.472;2022-07-22T18:21:58;27.90;51.40
63371;DHT22;49504;48.336;14.472;2022-07-22T18:27:01;27.90;51.40
63371;DHT22;49504;48.336;14.472;2022-07-22T18:32:02;27.90;51.50
63371;DHT22;49504;48.336;14.472;2022-07-22T18:37:03;27.90;51.50
63371;DHT22;49504;48.336;14.472;2022-07-22T18:42:06;27.90;51.60
63371;DHT22;49504;48.336;14.472;2022-07-22T18:47:07;28.00;51.70
63371;DHT22;49504;48.336;14.472;2022-07-22T18:52:08;28.00;51.70
63371;DHT22;49504;48.336;14.472;2022-07-22T18:57:10;27.90;51.60
63371;DHT22;49504;48.336;14.472;2022-07-22T19:02:11;27.90;51.60
63371;DHT22;49504;48.336;14.472;2022-07-22T19:07:12;28.00;51.70
63371;DHT22;49504;48.336;14.472;2022-07-22T19:12:15;27.90;51.70
63371;DHT22;49504;48.336;14.472;2022-07-22T19:17:16;28.00;51.80
63371;DHT22;49504;48.336;14.472;2022-07-22T19:22:17;28.00;51.80
63371;DHT22;49504;48.336;14.472;2022-07-22T19:27:19;28.00;51.80
63371;DHT22;49504;48.336;14.472;2022-07-22T19:32:20;28.00;51.90
63371;DHT22;49504;48.336;14.472;2022-07-22T19:37:21;28.00;51.90
63371;DHT22;49504;48.336;14.472;2022-07-22T19:42:24;28.00;51.90
63371;DHT22;49504;48.336;14.472;2022-07-22T19:47:25;28.00;51.90
63371;DHT22;49504;48.336;14.472;2022-07-22T19:52:26;28.00;51.90
63371;DHT22;49504;48.336;14.472;2022-07-22T19:57:28;28.00;51.90
63371;DHT22;49504;48.336;14.472;2022-07-22T20:02:29;28.00;52.00
63371;DHT22;49504;48.336;14.472;2022-07-22T20:07:30;28.00;51.90
63371;DHT22;49504;48.336;14.472;2022-07-22T20:12:32;28.00;51.90
63371;DHT22;49504;48.336;14.472;2022-07-22T20:17:34;28.00;51.90
63371;DHT22;49504;48.336;14.472;2022-07-22T20:22:35;28.00;52.00
63371;DHT22;49504;48.336;14.472;2022-07-22T20:27:37;28.00;52.00
63371;DHT22;49504;48.336;14.472;2022-07-22T20:32:39;28.00;52.00
63371;DHT22;49504;48.336;14.472;2022-07-22T20:37:42;28.00;52.20
63371;DHT22;49504;48.336;14.472;2022-07-22T20:42:44;28.00;52.10
63371;DHT22;49504;48.336;14.472;2022-07-22T20:47:45;28.00;52.00
63371;DHT22;49504;48.336;14.472;2022-07-22T20:52:46;28.00;52.00
63371;DHT22;49504;48.336;14.472;2022-07-22T20:57:49;28.00;52.00
